createdAt,value
2019-03-22T00:01:21.102Z,5.20
2019-03-22T00:03:51.502Z,5.10
2019-03-22T00:06:21.989Z,5.10
2019-03-22T00:08:52.361Z,4.90
2019-03-22T00:11:22.777Z,4.80
2019-03-22T00:13:53.164Z,4.70
2019-03-22T00:16:23.578Z,4.70
2019-03-22T00:18:54.007Z,4.60
2019-03-22T00:21:24.456Z,4.60
2019-03-22T00:23:54.876Z,4.50
2019-03-22T00:26:25.263Z,4.60
2019-03-22T00:28:55.626Z,4.50
2019-03-22T00:31:26.099Z,4.50
2019-03-22T00:33:56.496Z,4.50
2019-03-22T00:36:26.934Z,4.40
2019-03-22T00:38:57.313Z,4.40
2019-03-22T00:41:27.761Z,4.30
2019-03-22T00:43:58.288Z,4.30
2019-03-22T00:46:28.638Z,4.30
2019-03-22T00:48:59.083Z,4.30
2019-03-22T00:51:29.465Z,4.20
2019-03-22T00:53:59.890Z,4.20
2019-03-22T00:56:30.303Z,4.20
2019-03-22T00:59:00.611Z,4.10
2019-03-22T01:01:31.011Z,4.10
2019-03-22T01:04:01.425Z,4.10
2019-03-22T01:06:31.926Z,4.10
2019-03-22T01:09:02.215Z,4.20
2019-03-22T01:11:32.674Z,4.30
2019-03-22T01:14:03.069Z,4.40
2019-03-22T01:16:33.479Z,4.30
2019-03-22T01:19:03.876Z,4.30
2019-03-22T01:21:34.217Z,4.30
2019-03-22T01:24:04.606Z,4.20
2019-03-22T01:26:34.989Z,4.20
2019-03-22T01:29:05.426Z,4.20
2019-03-22T01:31:35.834Z,4.30
2019-03-22T01:34:06.261Z,4.40
2019-03-22T01:36:36.626Z,4.40
2019-03-22T01:39:07.572Z,4.40
2019-03-22T01:41:37.946Z,4.40
2019-03-22T01:44:08.388Z,4.30
2019-03-22T01:46:38.784Z,4.30
2019-03-22T01:49:09.226Z,4.30
2019-03-22T01:51:39.585Z,4.20
2019-03-22T01:54:09.982Z,4.10
2019-03-22T01:56:40.447Z,4.00
2019-03-22T01:59:10.857Z,4.00
2019-03-22T02:01:42.774Z,4.00
2019-03-22T02:04:13.149Z,4.00
2019-03-22T02:06:43.644Z,4.00
2019-03-22T02:09:14.022Z,4.00
2019-03-22T02:11:44.531Z,4.10
2019-03-22T02:14:14.916Z,4.00
2019-03-22T02:16:45.304Z,4.10
2019-03-22T02:19:15.763Z,4.20
2019-03-22T02:21:46.159Z,4.10
2019-03-22T02:24:16.617Z,4.10
2019-03-22T02:26:47.007Z,4.10
2019-03-22T02:29:17.439Z,4.10
2019-03-22T02:31:47.858Z,4.10
2019-03-22T02:34:18.270Z,4.10
2019-03-22T02:36:48.712Z,4.20
2019-03-22T02:39:19.129Z,4.10
2019-03-22T02:41:49.532Z,4.10
2019-03-22T02:44:19.906Z,4.10
2019-03-22T02:46:50.304Z,4.00
2019-03-22T02:49:20.735Z,4.00
2019-03-22T02:51:51.090Z,4.00
2019-03-22T02:54:21.527Z,4.00
2019-03-22T02:56:51.968Z,4.10
2019-03-22T02:59:22.469Z,4.20
2019-03-22T03:01:52.825Z,4.10
2019-03-22T03:04:23.313Z,4.20
2019-03-22T03:06:53.686Z,4.20
2019-03-22T03:09:24.572Z,4.20
2019-03-22T03:11:55.042Z,4.20
2019-03-22T03:14:25.830Z,4.20
2019-03-22T03:16:56.251Z,4.20
2019-03-22T03:19:26.687Z,4.20
2019-03-22T03:21:57.092Z,4.20
2019-03-22T03:24:27.554Z,4.10
2019-03-22T03:26:58.041Z,4.10
2019-03-22T03:29:29.132Z,4.10
2019-03-22T03:31:59.572Z,4.00
2019-03-22T03:34:30.116Z,3.90
2019-03-22T03:37:00.617Z,3.70
2019-03-22T03:39:31.006Z,3.70
2019-03-22T03:42:01.640Z,3.70
2019-03-22T03:44:32.005Z,3.80
2019-03-22T03:47:02.439Z,3.80
2019-03-22T03:49:32.884Z,3.80
2019-03-22T03:52:03.280Z,3.80
2019-03-22T03:54:33.737Z,3.80
2019-03-22T03:57:04.201Z,4.10
2019-03-22T03:59:34.566Z,4.30
2019-03-22T04:02:05.062Z,4.50
2019-03-22T04:04:35.443Z,4.30
2019-03-22T04:07:05.843Z,4.20
2019-03-22T04:09:36.633Z,4.00
2019-03-22T04:12:06.996Z,3.90
2019-03-22T04:14:37.500Z,3.90
2019-03-22T04:17:07.879Z,3.90
2019-03-22T04:19:38.354Z,3.90
2019-03-22T04:22:08.761Z,3.90
2019-03-22T04:24:39.350Z,3.90
2019-03-22T04:27:09.770Z,3.90
2019-03-22T04:29:41.562Z,3.90
2019-03-22T04:32:12.089Z,4.00
2019-03-22T04:34:42.534Z,4.10
2019-03-22T04:37:12.986Z,4.10
2019-03-22T04:39:43.416Z,4.10
2019-03-22T04:42:15.244Z,4.10
2019-03-22T04:44:48.603Z,4.10
2019-03-22T04:47:40.435Z,4.20
2019-03-22T04:50:14.891Z,4.30
2019-03-22T04:52:47.051Z,4.40
2019-03-22T04:55:21.893Z,4.40
2019-03-22T04:57:54.024Z,4.40
2019-03-22T05:00:32.673Z,4.40
2019-03-22T05:03:07.598Z,4.40
2019-03-22T05:05:38.143Z,4.60
2019-03-22T05:08:09.257Z,4.50
2019-03-22T05:10:42.517Z,4.40
2019-03-22T05:13:17.811Z,4.50
2019-03-22T05:15:48.910Z,4.40
2019-03-22T05:18:19.957Z,4.50
2019-03-22T05:21:01.041Z,4.60
2019-03-22T05:23:39.228Z,4.70
2019-03-22T05:26:11.611Z,4.90
2019-03-22T05:28:42.787Z,5.10
2019-03-22T05:31:20.597Z,5.20
2019-03-22T05:33:51.115Z,5.20
2019-03-22T05:36:22.520Z,5.20
2019-03-22T05:38:52.996Z,5.30
2019-03-22T05:41:28.831Z,5.30
2019-03-22T05:43:59.267Z,5.50
2019-03-22T05:46:29.728Z,5.60
2019-03-22T05:49:00.227Z,5.80
2019-03-22T05:51:30.666Z,5.90
2019-03-22T05:54:01.228Z,5.90
2019-03-22T05:56:31.679Z,6.00
2019-03-22T05:59:02.132Z,6.00
2019-03-22T06:01:32.627Z,6.10
2019-03-22T06:04:03.025Z,6.30
2019-03-22T06:06:33.586Z,6.70
2019-03-22T06:09:05.498Z,7.30
2019-03-22T06:11:37.951Z,7.50
2019-03-22T06:14:08.392Z,7.40
2019-03-22T06:16:38.867Z,7.40
2019-03-22T06:19:09.203Z,7.30
2019-03-22T06:21:39.679Z,7.50
2019-03-22T06:24:10.109Z,7.70
2019-03-22T06:26:40.531Z,7.80
2019-03-22T06:29:13.107Z,7.90
2019-03-22T06:31:43.710Z,7.90
2019-03-22T06:34:14.075Z,7.90
2019-03-22T06:36:44.468Z,8.10
2019-03-22T06:39:14.860Z,8.20
2019-03-22T06:41:45.201Z,8.50
2019-03-22T06:44:17.211Z,8.80
2019-03-22T06:46:47.628Z,8.80
2019-03-22T06:49:18.124Z,8.90
2019-03-22T06:51:48.499Z,8.90
2019-03-22T06:54:30.709Z,8.80
2019-03-22T06:56:50.964Z,8.90
2019-03-22T06:59:21.614Z,9.10
2019-03-22T07:01:52.004Z,9.40
2019-03-22T07:04:22.437Z,9.70
2019-03-22T07:06:53.013Z,9.70
2019-03-22T07:09:23.574Z,9.80
2019-03-22T07:11:53.991Z,9.70
2019-03-22T07:14:24.551Z,10.10
2019-03-22T07:16:55.029Z,10.20
2019-03-22T07:19:27.196Z,10.30
2019-03-22T07:21:57.600Z,10.70
2019-03-22T07:24:28.075Z,11.10
2019-03-22T07:27:00.875Z,11.30
2019-03-22T07:29:31.335Z,11.50
2019-03-22T07:32:01.751Z,11.80
2019-03-22T07:34:32.250Z,11.70
2019-03-22T07:37:02.706Z,11.40
2019-03-22T07:39:33.110Z,11.30
2019-03-22T07:42:03.687Z,11.10
2019-03-22T07:44:34.092Z,10.80
2019-03-22T07:47:18.736Z,10.90
2019-03-22T07:49:42.427Z,11.00
2019-03-22T07:52:13.070Z,10.60
2019-03-22T07:54:44.732Z,11.10
2019-03-22T07:57:15.134Z,11.20
2019-03-22T07:59:45.509Z,11.50
2019-03-22T08:02:15.955Z,11.60
2019-03-22T08:04:46.366Z,11.20
2019-03-22T08:07:16.775Z,11.30
2019-03-22T08:09:47.313Z,11.30
2019-03-22T08:12:19.472Z,11.30
2019-03-22T08:14:49.883Z,11.20
2019-03-22T08:17:20.353Z,11.50
2019-03-22T08:19:50.773Z,11.70
2019-03-22T08:22:21.207Z,11.90
2019-03-22T08:24:51.639Z,12.20
2019-03-22T08:27:22.085Z,12.30
2019-03-22T08:29:52.458Z,12.60
2019-03-22T08:32:22.817Z,12.90
2019-03-22T08:34:53.258Z,12.70
2019-03-22T08:37:25.254Z,12.80
2019-03-22T08:39:56.007Z,12.90
2019-03-22T08:42:29.075Z,13.10
2019-03-22T08:44:59.546Z,13.40
2019-03-22T08:47:34.207Z,13.40
2019-03-22T08:50:01.994Z,13.20
2019-03-22T08:52:32.454Z,12.90
2019-03-22T08:55:02.950Z,12.90
2019-03-22T08:57:33.311Z,12.90
2019-03-22T09:00:05.476Z,13.00
2019-03-22T09:02:35.979Z,13.00
2019-03-22T09:05:07.231Z,13.20
2019-03-22T09:07:37.916Z,13.20
2019-03-22T09:10:12.781Z,13.40
2019-03-22T09:12:43.258Z,13.30
2019-03-22T09:15:13.831Z,13.30
2019-03-22T09:17:45.757Z,13.40
2019-03-22T09:20:16.201Z,13.30
2019-03-22T09:22:47.020Z,13.40
2019-03-22T09:25:19.994Z,13.60
2019-03-22T09:27:50.410Z,13.40
2019-03-22T09:30:20.803Z,13.00
2019-03-22T09:32:51.215Z,13.10
2019-03-22T09:35:21.616Z,13.00
2019-03-22T09:37:51.979Z,12.90
2019-03-22T09:40:22.405Z,12.90
2019-03-22T09:42:53.221Z,12.70
2019-03-22T09:45:24.064Z,12.70
2019-03-22T09:47:54.587Z,12.80
2019-03-22T09:50:25.032Z,13.00
2019-03-22T09:52:55.405Z,13.10
2019-03-22T09:55:25.811Z,13.10
2019-03-22T09:57:57.216Z,13.20
2019-03-22T10:00:29.676Z,13.30
2019-03-22T10:03:00.683Z,13.40
2019-03-22T10:05:31.079Z,13.20
2019-03-22T10:08:01.624Z,13.00
2019-03-22T10:10:33.614Z,13.00
2019-03-22T10:13:05.934Z,13.00
2019-03-22T10:15:36.658Z,13.00
2019-03-22T10:18:07.124Z,13.00
2019-03-22T10:20:39.228Z,12.90
2019-03-22T10:23:12.399Z,12.60
2019-03-22T10:25:42.830Z,12.50
2019-03-22T10:28:14.676Z,12.50
2019-03-22T10:30:45.946Z,12.60
2019-03-22T10:33:22.616Z,12.50
2019-03-22T10:35:48.470Z,12.40
2019-03-22T10:38:31.011Z,12.40
2019-03-22T10:40:50.951Z,12.40
2019-03-22T10:43:21.436Z,12.30
2019-03-22T10:45:54.944Z,12.60
2019-03-22T10:48:25.376Z,12.60
2019-03-22T10:50:55.721Z,12.70
2019-03-22T10:53:26.235Z,12.70
2019-03-22T10:55:56.624Z,12.90
2019-03-22T10:58:27.080Z,12.90
2019-03-22T11:00:59.159Z,12.90
2019-03-22T11:03:32.798Z,13.00
2019-03-22T11:06:03.250Z,12.80
2019-03-22T11:08:34.574Z,12.60
2019-03-22T11:11:05.527Z,12.40
2019-03-22T11:13:36.081Z,12.30
2019-03-22T11:16:09.831Z,12.20
2019-03-22T11:18:40.644Z,12.30
2019-03-22T11:21:11.053Z,12.40
2019-03-22T11:23:41.513Z,12.40
2019-03-22T11:26:11.905Z,12.20
2019-03-22T11:28:43.869Z,12.20
2019-03-22T11:31:14.320Z,12.10
2019-03-22T11:33:44.701Z,12.10
2019-03-22T11:36:15.148Z,11.90
2019-03-22T11:38:45.535Z,12.10
2019-03-22T11:41:16.001Z,12.00
2019-03-22T11:43:46.361Z,11.90
2019-03-22T11:46:18.345Z,11.90
2019-03-22T11:48:48.769Z,11.90
2019-03-22T11:51:19.879Z,11.80
2019-03-22T11:53:50.254Z,11.80
2019-03-22T11:56:20.683Z,11.90
2019-03-22T11:58:51.249Z,11.90
2019-03-22T12:01:22.637Z,12.00
2019-03-22T12:03:53.568Z,11.80
2019-03-22T12:06:23.982Z,11.70
2019-03-22T12:08:54.434Z,11.60
2019-03-22T12:11:24.832Z,11.60
2019-03-22T12:13:55.243Z,11.50
2019-03-22T12:16:25.627Z,11.60
2019-03-22T12:18:56.083Z,11.60
2019-03-22T12:21:26.468Z,11.60
2019-03-22T12:23:56.905Z,11.60
2019-03-22T12:26:27.284Z,11.60
2019-03-22T12:28:57.708Z,11.50
2019-03-22T12:31:28.185Z,11.50
2019-03-22T12:33:58.571Z,11.50
2019-03-22T12:36:29.003Z,11.60
2019-03-22T12:38:59.396Z,11.60
2019-03-22T12:41:29.829Z,11.50
2019-03-22T12:44:00.191Z,11.60
2019-03-22T12:46:30.776Z,11.80
2019-03-22T12:49:01.226Z,11.90
2019-03-22T12:51:31.683Z,12.00
2019-03-22T12:54:02.098Z,12.10
2019-03-22T12:56:32.582Z,12.20
2019-03-22T12:59:03.081Z,12.00
2019-03-22T13:01:33.483Z,11.90
2019-03-22T13:04:06.547Z,11.80
2019-03-22T13:06:37.004Z,11.70
2019-03-22T13:09:08.634Z,11.50
2019-03-22T13:11:39.068Z,11.50
2019-03-22T13:14:09.493Z,11.50
2019-03-22T13:16:39.928Z,11.60
2019-03-22T13:19:10.351Z,11.50
2019-03-22T13:21:40.796Z,11.50
2019-03-22T13:24:11.240Z,11.50
2019-03-22T13:26:44.746Z,11.50
2019-03-22T13:29:15.145Z,11.50
2019-03-22T13:31:45.638Z,11.60
2019-03-22T13:34:16.029Z,11.60
2019-03-22T13:36:46.485Z,11.70
2019-03-22T13:39:16.919Z,11.70
2019-03-22T13:41:47.452Z,11.60
2019-03-22T13:44:17.920Z,11.70
2019-03-22T13:46:49.906Z,11.60
2019-03-22T13:49:20.476Z,11.40
2019-03-22T13:51:50.934Z,11.30
2019-03-22T13:54:23.771Z,11.10
2019-03-22T13:56:54.263Z,11.00
2019-03-22T13:59:24.813Z,11.00
2019-03-22T14:01:55.288Z,10.70
2019-03-22T14:04:25.737Z,10.50
2019-03-22T14:06:56.217Z,10.30
2019-03-22T14:09:26.663Z,10.20
2019-03-22T14:11:57.095Z,10.10
2019-03-22T14:14:27.524Z,10.10
2019-03-22T14:16:58.030Z,10.20
2019-03-22T14:19:28.425Z,10.30
2019-03-22T14:21:58.929Z,10.40
2019-03-22T14:24:29.445Z,10.50
2019-03-22T14:26:59.998Z,10.40
2019-03-22T14:29:30.462Z,10.40
2019-03-22T14:32:04.765Z,10.40
2019-03-22T14:34:35.173Z,10.40
2019-03-22T14:37:05.898Z,10.40
2019-03-22T14:39:36.372Z,10.50
2019-03-22T14:42:06.895Z,10.70
2019-03-22T14:44:37.274Z,10.80
2019-03-22T14:47:07.907Z,10.70
2019-03-22T14:49:38.370Z,10.50
2019-03-22T14:52:10.909Z,10.40
2019-03-22T14:54:41.399Z,10.40
2019-03-22T14:57:11.819Z,10.30
2019-03-22T14:59:42.255Z,10.20
2019-03-22T15:02:12.764Z,10.20
2019-03-22T15:04:43.182Z,10.20
2019-03-22T15:07:19.410Z,10.20
2019-03-22T15:09:48.401Z,10.30
2019-03-22T15:12:20.397Z,10.40
2019-03-22T15:14:58.510Z,10.40
2019-03-22T15:17:48.592Z,10.30
2019-03-22T15:20:31.210Z,10.30
2019-03-22T15:23:03.339Z,10.20
2019-03-22T15:25:41.671Z,10.10
2019-03-22T15:28:27.498Z,10.10
2019-03-22T15:31:17.582Z,10.10
2019-03-22T15:34:06.028Z,10.00
2019-03-22T15:36:45.322Z,10.00
2019-03-22T15:42:03.972Z,9.80
2019-03-22T15:44:34.535Z,9.80
2019-03-22T15:47:07.522Z,9.80
2019-03-22T15:49:37.875Z,9.80
2019-03-22T15:52:08.366Z,9.80
2019-03-22T15:54:38.944Z,9.80
2019-03-22T15:57:09.454Z,9.70
2019-03-22T15:59:39.933Z,9.70
2019-03-22T16:02:10.471Z,9.70
2019-03-22T16:04:40.976Z,9.70
2019-03-22T16:07:11.431Z,9.80
2019-03-22T16:09:41.855Z,9.90
2019-03-22T16:12:12.357Z,9.90
2019-03-22T16:14:42.763Z,10.00
2019-03-22T16:17:13.208Z,8.40
2019-03-22T16:19:43.604Z,6.90
2019-03-22T16:22:14.032Z,6.10
2019-03-22T16:24:44.518Z,5.70
2019-03-22T16:27:14.936Z,5.40
2019-03-22T16:29:45.399Z,5.20
2019-03-22T16:32:15.858Z,5.00
2019-03-22T16:34:46.291Z,4.90
2019-03-22T16:37:16.736Z,4.80
2019-03-22T16:39:47.182Z,4.60
2019-03-22T16:42:19.103Z,4.60
2019-03-22T16:44:50.990Z,4.50
2019-03-22T16:47:26.120Z,4.60
2019-03-22T16:49:56.437Z,4.60
2019-03-22T16:52:26.872Z,4.60
2019-03-22T16:54:59.407Z,4.60
2019-03-22T16:57:30.924Z,4.70
2019-03-22T17:00:03.000Z,4.70
2019-03-22T17:02:36.131Z,4.70
2019-03-22T17:05:11.348Z,4.60
2019-03-22T17:07:41.753Z,4.50
2019-03-22T17:10:12.219Z,4.60
2019-03-22T17:12:42.675Z,4.60
2019-03-22T17:15:13.821Z,4.60
2019-03-22T17:17:44.528Z,4.70
2019-03-22T17:20:16.942Z,4.70
2019-03-22T17:22:47.348Z,4.70
2019-03-22T17:25:17.848Z,4.60
2019-03-22T17:27:48.380Z,4.60
2019-03-22T17:30:19.015Z,4.60
2019-03-22T17:32:49.712Z,4.60
2019-03-22T17:35:21.850Z,4.70
2019-03-22T17:37:55.091Z,4.70
2019-03-22T17:40:25.688Z,4.80
2019-03-22T17:42:56.105Z,4.80
2019-03-22T17:45:26.600Z,4.80
2019-03-22T17:47:58.938Z,4.80
2019-03-22T17:50:29.387Z,4.80
2019-03-22T17:53:02.353Z,4.70
2019-03-22T17:55:34.260Z,4.70
2019-03-22T17:58:04.811Z,4.70
2019-03-22T18:00:35.565Z,4.70
2019-03-22T18:03:08.833Z,4.70
2019-03-22T18:05:39.312Z,4.60
2019-03-22T18:08:09.888Z,4.60
2019-03-22T18:10:40.388Z,4.70
2019-03-22T18:13:12.858Z,4.80
2019-03-22T18:15:43.386Z,4.80
2019-03-22T18:18:15.350Z,4.80
2019-03-22T18:20:46.351Z,4.80
2019-03-22T18:23:16.794Z,4.70
2019-03-22T18:25:47.366Z,4.70
2019-03-22T18:28:20.309Z,4.80
2019-03-22T18:30:59.032Z,4.80
2019-03-22T18:33:29.469Z,4.80
2019-03-22T18:36:02.159Z,4.80
2019-03-22T18:38:32.655Z,4.80
2019-03-22T18:41:03.143Z,4.80
2019-03-22T18:43:33.597Z,4.90
2019-03-22T18:46:07.105Z,4.90
2019-03-22T18:48:39.347Z,4.90
2019-03-22T18:51:11.929Z,4.90
2019-03-22T18:53:42.460Z,5.00
2019-03-22T18:56:13.035Z,5.00
2019-03-22T18:58:43.472Z,5.10
2019-03-22T19:01:13.939Z,5.10
2019-03-22T19:03:44.467Z,5.10
2019-03-22T19:06:14.934Z,5.10
2019-03-22T19:08:47.371Z,5.00
2019-03-22T19:11:17.851Z,5.00
2019-03-22T19:13:48.240Z,5.00
2019-03-22T19:16:18.829Z,5.00
2019-03-22T19:18:49.580Z,5.00
2019-03-22T19:21:21.736Z,5.00
2019-03-22T19:23:52.118Z,5.00
2019-03-22T19:26:22.724Z,5.00
2019-03-22T19:28:53.160Z,5.00
2019-03-22T19:31:23.749Z,4.90
2019-03-22T19:33:55.665Z,4.90
2019-03-22T19:36:29.213Z,4.80
2019-03-22T19:38:59.641Z,4.80
2019-03-22T19:41:30.067Z,4.80
2019-03-22T19:44:00.579Z,4.70
2019-03-22T19:46:31.011Z,4.70
2019-03-22T19:49:01.449Z,4.70
2019-03-22T19:51:31.905Z,4.70
2019-03-22T19:54:02.368Z,4.70
2019-03-22T19:56:34.299Z,4.60
2019-03-22T19:59:04.837Z,4.60
2019-03-22T20:01:35.249Z,4.60
2019-03-22T20:04:05.757Z,4.60
2019-03-22T20:06:36.319Z,4.60
2019-03-22T20:09:09.222Z,4.60
2019-03-22T20:11:39.852Z,4.60
2019-03-22T20:14:10.403Z,4.60
2019-03-22T20:16:41.120Z,4.60
2019-03-22T20:19:11.705Z,4.60
2019-03-22T20:21:46.464Z,4.50
2019-03-22T20:24:16.970Z,4.50
2019-03-22T20:26:47.599Z,4.50
2019-03-22T20:29:19.757Z,4.50
2019-03-22T20:31:51.613Z,4.40
2019-03-22T20:34:22.260Z,4.40
2019-03-22T20:36:52.722Z,4.40
2019-03-22T20:39:23.129Z,4.30
2019-03-22T20:41:58.503Z,4.30
2019-03-22T20:44:33.835Z,4.30
2019-03-22T20:47:01.075Z,4.30
2019-03-22T20:49:31.608Z,4.30
2019-03-22T20:52:03.347Z,4.30
2019-03-22T20:54:33.725Z,4.30
2019-03-22T20:57:04.166Z,4.30
2019-03-22T20:59:35.051Z,4.40
2019-03-22T21:02:05.442Z,4.50
2019-03-22T21:04:36.033Z,4.50
2019-03-22T21:07:06.536Z,4.50
2019-03-22T21:09:39.918Z,4.50
2019-03-22T21:12:10.363Z,4.50
2019-03-22T21:14:50.034Z,4.40
2019-03-22T21:17:30.147Z,4.50
2019-03-22T21:20:00.789Z,4.50
2019-03-22T21:22:34.321Z,4.50
2019-03-22T21:25:08.627Z,4.60
2019-03-22T21:27:45.724Z,4.60
2019-03-22T21:30:16.556Z,4.60
2019-03-22T21:32:47.051Z,4.70
2019-03-22T21:35:22.347Z,4.60
2019-03-22T21:37:50.418Z,4.60
2019-03-22T21:40:20.914Z,4.70
2019-03-22T21:42:51.494Z,4.60
2019-03-22T21:45:21.934Z,4.60
2019-03-22T21:47:52.424Z,4.60
2019-03-22T21:50:22.915Z,4.60
2019-03-22T21:52:53.269Z,4.60
2019-03-22T21:55:23.702Z,4.60
2019-03-22T21:57:54.123Z,4.50
2019-03-22T22:00:24.563Z,4.50
2019-03-22T22:02:55.545Z,4.50
2019-03-22T22:05:26.100Z,4.50
2019-03-22T22:07:56.496Z,4.40
2019-03-22T22:10:26.943Z,4.40
2019-03-22T22:12:57.501Z,4.40
2019-03-22T22:15:28.763Z,4.40
2019-03-22T22:17:59.166Z,4.40
2019-03-22T22:20:29.631Z,4.40
2019-03-22T22:23:00.062Z,4.30
2019-03-22T22:25:30.482Z,4.30
2019-03-22T22:28:01.056Z,4.20
2019-03-22T22:30:31.489Z,4.10
2019-03-22T22:33:04.952Z,4.10
2019-03-22T22:35:35.375Z,4.00
2019-03-22T22:38:07.521Z,3.90
2019-03-22T22:40:37.961Z,3.90
2019-03-22T22:43:08.396Z,3.80
2019-03-22T22:45:38.871Z,3.80
2019-03-22T22:48:09.361Z,3.80
2019-03-22T22:50:39.836Z,3.80
2019-03-22T22:53:10.319Z,3.80
2019-03-22T22:55:40.772Z,3.80
2019-03-22T22:58:14.256Z,3.80
2019-03-22T23:00:46.795Z,3.90
2019-03-22T23:03:17.262Z,3.90
2019-03-22T23:05:47.642Z,3.90
2019-03-22T23:08:18.163Z,3.90
2019-03-22T23:10:48.501Z,3.90
2019-03-22T23:13:19.006Z,3.80
2019-03-22T23:15:49.455Z,3.80
2019-03-22T23:18:19.834Z,3.80
2019-03-22T23:20:50.432Z,3.80
2019-03-22T23:23:20.840Z,3.80
2019-03-22T23:25:51.332Z,3.80
2019-03-22T23:28:21.931Z,3.90
2019-03-22T23:30:52.394Z,4.10
2019-03-22T23:33:22.734Z,4.30
2019-03-22T23:35:53.222Z,4.40
2019-03-22T23:38:23.636Z,4.40
2019-03-22T23:40:54.074Z,4.50
2019-03-22T23:43:24.439Z,4.70
2019-03-22T23:45:54.862Z,4.70
2019-03-22T23:48:26.679Z,4.50
2019-03-22T23:50:57.059Z,4.40
2019-03-22T23:53:27.558Z,4.40
2019-03-22T23:55:57.954Z,4.50
2019-03-22T23:58:28.338Z,4.40
